Time;durP1;ratioP1;P1;durP2;ratioP2;P2;SDS_P1;SDS_P2;PMS_P1;PMS_P2;Temp;Humidity;BMP_temperature;BMP_pressure;BME280_temperature;BME280_humidity;BME280_pressure;Samples;Min_cycle;Max_cycle;Signal;HPM_P1;HPM_P2
2023/01/06 00:04:18;;;;;;;0.37;0.37;;;;;;;11.86;56.11;100815.09;18627897;31;20156;-58
2023/01/06 00:14:22;;;;;;;0.50;0.50;;;;;;;11.76;56.13;100833.41;18425069;32;20097;-58
2023/01/06 00:24:25;;;;;;;0.50;0.50;;;;;;;12.02;55.37;100829.91;18424992;32;20125;-58
2023/01/06 00:34:30;;;;;;;0.50;0.50;;;;;;;11.10;58.13;100826.34;18423710;32;20150;-58
2023/01/06 00:44:34;;;;;;;0.50;0.50;;;;;;;11.24;56.73;100840.31;18424122;32;20089;-58
2023/01/06 00:54:39;;;;;;;1.85;0.60;;;;;;;11.69;54.70;100852.56;18423584;31;20149;-58
2023/01/06 01:04:42;;;;;;;0.50;0.50;;;;;;;11.74;52.93;100866.50;18423254;32;20100;-58
2023/01/06 01:14:48;;;;;;;0.50;0.50;;;;;;;11.62;53.24;100888.31;18422947;32;20097;-58
2023/01/06 01:24:51;;;;;;;0.43;0.43;;;;;;;11.81;52.39;100893.56;18422509;32;20103;-57
2023/01/06 01:34:56;;;;;;;0.50;0.50;;;;;;;12.00;51.79;100924.94;18421720;32;20096;-58
2023/01/06 01:45:02;;;;;;;0.43;0.43;;;;;;;11.74;52.72;100910.97;18421612;32;20097;-57
2023/01/06 01:55:08;;;;;;;0.52;0.52;;;;;;;11.08;55.23;100924.72;18420972;31;20177;-58
2023/01/06 02:05:12;;;;;;;0.50;0.50;;;;;;;11.18;55.93;100926.50;18420532;32;20097;-58
2023/01/06 02:15:20;;;;;;;0.50;0.50;;;;;;;11.30;55.69;100927.44;18419902;32;20141;-58
2023/01/06 02:25:44;;;;;;;0.40;0.40;;;;;;;11.09;56.48;100950.88;18420864;32;20096;-58
2023/01/06 02:35:56;;;;;;;0.40;0.40;;;;;;;11.14;56.51;100948.28;18420458;32;20089;-58
2023/01/06 02:46:03;;;;;;;;;;;;;;;11.15;56.63;100951.78;18418990;32;20081;-58
2023/01/06 02:56:08;;;;;;;0.60;0.60;;;;;;;11.02;56.82;100958.69;18438896;31;19996;-58
2023/01/06 03:06:15;;;;;;;1.55;0.75;;;;;;;10.95;56.92;100963.88;18439470;32;20133;-57
2023/01/06 03:16:20;;;;;;;0.50;0.50;;;;;;;11.01;56.45;100975.22;18438840;32;20089;-58
2023/01/06 03:26:24;;;;;;;1.62;1.52;;;;;;;10.94;56.25;100980.41;18438200;32;20097;-58
2023/01/06 03:36:37;;;;;;;0.52;0.52;;;;;;;10.87;56.48;100988.22;18437827;32;20631;-58
2023/01/06 03:46:44;;;;;;;0.60;0.60;;;;;;;10.88;56.56;100992.56;18437324;32;20084;-57
2023/01/06 03:56:52;;;;;;;0.50;0.50;;;;;;;10.90;56.16;101011.72;18431249;32;160613;-58
2023/01/06 04:06:55;;;;;;;0.50;0.50;;;;;;;10.79;56.09;101020.37;18425666;32;20149;-58
2023/01/06 04:17:00;;;;;;;0.40;0.40;;;;;;;10.71;56.18;101008.09;18425212;32;20488;-58
2023/01/06 04:27:03;;;;;;;0.50;0.50;;;;;;;10.62;56.09;101001.97;18424421;32;20163;-58
2023/01/06 04:37:08;;;;;;;0.50;0.50;;;;;;;10.45;56.63;101008.81;18425185;32;20631;-58
2023/01/06 04:47:11;;;;;;;0.60;0.60;;;;;;;10.73;56.07;101022.06;18396659;32;20342;-57
2023/01/06 04:57:16;;;;;;;0.60;0.60;;;;;;;10.85;55.89;101055.22;18359401;31;20097;-57
2023/01/06 05:07:19;;;;;;;0.50;0.50;;;;;;;10.57;56.54;101062.81;18360087;32;20384;-58
2023/01/06 05:17:24;;;;;;;0.60;0.60;;;;;;;10.27;57.74;101079.06;18358885;32;20112;-58
2023/01/06 05:27:28;;;;;;;0.60;0.60;;;;;;;10.48;57.53;101082.81;18358290;32;20154;-58
2023/01/06 05:37:34;;;;;;;0.60;0.60;;;;;;;10.51;57.67;101108.91;18357518;32;20105;-58
2023/01/06 05:47:37;;;;;;;0.60;0.60;;;;;;;10.55;57.55;101102.84;18357803;32;20093;-59
2023/01/06 05:57:42;;;;;;;1.42;0.70;;;;;;;10.57;57.62;101118.53;18356832;31;20105;-58
2023/01/06 06:07:45;;;;;;;0.60;0.60;;;;;;;10.21;58.13;101144.25;18356547;32;20432;-57
2023/01/06 06:17:50;;;;;;;0.60;0.60;;;;;;;10.26;57.56;101155.59;18356386;32;20090;-57
2023/01/06 06:27:57;;;;;;;0.50;0.50;;;;;;;10.30;56.95;101161.75;18355860;32;20098;-57
2023/01/06 06:38:02;;;;;;;0.50;0.50;;;;;;;10.13;57.48;101183.28;18355506;32;20099;-57
2023/01/06 06:48:06;;;;;;;0.50;0.50;;;;;;;10.17;57.04;101184.19;18356157;32;20102;-58
2023/01/06 06:58:11;;;;;;;0.60;0.60;;;;;;;10.01;57.43;101196.19;18354295;32;20089;-57
2023/01/06 07:08:14;;;;;;;0.60;0.60;;;;;;;10.08;57.43;101202.34;18354020;32;20105;-57
2023/01/06 07:18:19;;;;;;;0.50;0.50;;;;;;;10.33;56.75;101218.31;18353364;32;20089;-58
2023/01/06 07:28:23;;;;;;;0.40;0.40;;;;;;;11.13;55.37;101241.81;18351998;32;20097;-58
2023/01/06 07:38:27;;;;;;;0.55;0.52;;;;;;;12.10;52.75;101221.56;18358254;32;20101;-58
2023/01/06 07:48:31;;;;;;;0.30;0.30;;;;;;;12.70;50.69;101226.13;18362294;32;20133;-58
2023/01/06 07:58:35;;;;;;;0.40;0.40;;;;;;;12.80;50.08;101233.13;18362774;32;20123;-58
2023/01/06 08:08:40;;;;;;;0.40;0.40;;;;;;;12.70;49.85;101241.84;18361132;32;20093;-58
2023/01/06 08:18:45;;;;;;;0.45;0.45;;;;;;;12.11;51.89;101237.28;18396543;32;20188;-58
2023/01/06 08:28:48;;;;;;;0.50;0.50;;;;;;;11.91;51.10;101248.50;18378276;31;20073;-58
2023/01/06 08:38:54;;;;;;;0.50;0.50;;;;;;;11.80;50.22;101240.56;18361947;32;20118;-58
2023/01/06 08:48:57;;;;;;;0.47;0.47;;;;;;;12.23;49.01;101240.81;18389999;32;20085;-58
2023/01/06 08:59:03;;;;;;;0.52;0.52;;;;;;;11.29;51.17;101231.50;18358912;32;20146;-58
2023/01/06 09:09:07;;;;;;;0.43;0.43;;;;;;;12.00;51.79;101245.03;18358944;32;20370;-58
2023/01/06 09:19:12;;;;;;;21.65;1.80;;;;;;;12.07;51.74;101238.13;18391679;32;20097;-58
2023/01/06 09:29:16;;;;;;;0.50;0.50;;;;;;;12.52;50.42;101230.47;18420684;32;20097;-58
2023/01/06 09:39:20;;;;;;;0.47;0.47;;;;;;;13.02;47.79;101220.09;18357848;31;20362;-58
2023/01/06 09:49:28;;;;;;;0.50;0.50;;;;;;;13.15;45.25;101234.06;18390338;32;20459;-58
2023/01/06 09:59:35;;;;;;;0.40;0.40;;;;;;;13.16;44.73;101225.34;18419167;32;20096;-58
2023/01/06 10:09:44;;;;;;;0.50;0.50;;;;;;;13.28;42.10;101227.09;18420050;32;20140;-59
2023/01/06 10:20:01;;;;;;;0.40;0.40;;;;;;;13.29;43.55;101226.22;18385059;32;20698;-58
2023/01/06 10:30:11;;;;;;;0.60;0.60;;;;;;;13.37;44.15;101208.69;18364026;32;20089;-58
2023/01/06 10:40:19;;;;;;;0.40;0.40;;;;;;;12.88;45.13;101199.09;18418663;32;20346;-58
2023/01/06 10:50:23;;;;;;;0.30;0.30;;;;;;;12.88;44.99;101204.34;18377726;32;20104;-58
2023/01/06 11:00:31;;;;;;;0.40;0.40;;;;;;;12.88;44.92;101193.88;18354826;32;20129;-60
2023/01/06 11:10:38;;;;;;;0.40;0.40;;;;;;;12.90;44.67;101194.72;18377398;32;20090;-58
2023/01/06 11:20:43;;;;;;;0.40;0.40;;;;;;;12.79;44.60;101196.47;18405211;32;20096;-58
2023/01/06 11:30:50;;;;;;;0.50;0.50;;;;;;;13.10;44.03;101194.75;18394791;32;20100;-58
2023/01/06 11:40:54;;;;;;;0.55;0.55;;;;;;;13.22;42.41;101195.63;18362176;32;20158;-58
2023/01/06 11:50:59;;;;;;;0.40;0.40;;;;;;;13.28;42.61;101193.00;18404461;32;20133;-58
2023/01/06 12:01:08;;;;;;;0.40;0.40;;;;;;;13.28;42.39;101193.00;18424836;32;20501;-58
2023/01/06 12:11:15;;;;;;;0.40;0.40;;;;;;;13.31;41.81;101185.13;18425643;32;20165;-58
2023/01/06 12:21:26;;;;;;;0.73;0.73;;;;;;;13.41;42.62;101175.47;18379624;32;20125;-58
2023/01/06 12:31:39;;;;;;;0.40;0.40;;;;;;;13.76;41.78;101164.06;18377515;32;20085;-58
2023/01/06 12:41:48;;;;;;;0.40;0.40;;;;;;;14.00;41.82;101146.50;18423661;32;20089;-58
2023/01/06 12:51:53;;;;;;;0.50;0.50;;;;;;;14.14;42.34;101154.31;18391005;32;20101;-58
2023/01/06 13:02:06;;;;;;;0.40;0.40;;;;;;;14.12;43.13;101145.53;18395990;32;20097;-58
2023/01/06 13:12:32;;;;;;;0.40;0.40;;;;;;;14.03;43.40;101141.22;18384246;32;20112;-58
2023/01/06 13:22:47;;;;;;;0.40;0.40;;;;;;;14.01;43.77;101132.50;18359750;32;20094;-58
2023/01/06 13:33:03;;;;;;;0.40;0.40;;;;;;;14.10;44.41;101124.56;18392607;32;20411;-58
2023/01/06 13:43:15;;;;;;;0.40;0.40;;;;;;;13.70;44.81;101138.72;18416433;32;20112;-59
2023/01/06 13:53:20;;;;;;;0.40;0.40;;;;;;;13.86;45.55;101133.44;18357246;32;20148;-58
2023/01/06 14:03:25;;;;;;;0.40;0.40;;;;;;;12.97;47.48;101130.97;18356309;32;20101;-59
2023/01/06 14:13:33;;;;;;;0.40;0.40;;;;;;;12.61;48.61;101132.69;18401597;32;20134;-58
2023/01/06 14:23:37;;;;;;;0.40;0.40;;;;;;;13.41;47.42;101131.78;18385567;32;20350;-58
2023/01/06 14:33:42;;;;;;;0.40;0.40;;;;;;;12.10;50.71;101137.81;18407380;32;20711;-58
2023/01/06 14:43:52;;;;;;;0.57;0.57;;;;;;;12.60;49.62;101142.28;18411954;32;20097;-58
2023/01/06 14:53:59;;;;;;;0.60;0.60;;;;;;;12.67;49.89;101139.69;18372813;31;20496;-58
2023/01/06 15:04:04;;;;;;;0.50;0.50;;;;;;;11.59;52.67;101144.53;18397549;32;20118;-58
2023/01/06 15:14:23;;;;;;;0.50;0.50;;;;;;;12.34;51.05;101135.28;18408797;32;20394;-58
2023/01/06 15:24:31;;;;;;;0.57;0.57;;;;;;;11.98;51.78;101136.88;18352598;32;20672;-58
2023/01/06 15:34:36;;;;;;;0.70;0.70;;;;;;;11.69;52.64;101124.56;18392754;32;20109;-58
2023/01/06 15:44:41;;;;;;;0.57;0.57;;;;;;;11.38;53.63;101108.69;18407433;32;20097;-58
2023/01/06 15:54:45;;;;;;;1.00;1.00;;;;;;;11.00;53.77;101119.75;18352157;32;20109;-58
2023/01/06 16:04:50;;;;;;;0.60;0.60;;;;;;;10.60;54.39;101139.44;18370315;32;20653;-58
2023/01/06 16:14:53;;;;;;;0.50;0.50;;;;;;;10.38;54.40;101134.00;18414837;32;20096;-58
2023/01/06 16:25:00;;;;;;;0.60;0.60;;;;;;;9.85;56.32;101150.78;18395413;32;20097;-58
2023/01/06 16:35:09;;;;;;;0.65;0.65;;;;;;;9.46;57.45;101165.87;18401435;32;20116;-58
2023/01/06 16:45:21;;;;;;;0.65;0.65;;;;;;;9.13;57.16;101161.91;18413744;32;20141;-58
2023/01/06 16:55:25;;;;;;;0.70;0.70;;;;;;;8.96;57.65;101159.91;18368135;32;20107;-58
2023/01/06 17:05:29;;;;;;;0.60;0.60;;;;;;;8.80;58.39;101163.97;18423489;32;20097;-58
2023/01/06 17:15:33;;;;;;;1.05;1.05;;;;;;;8.61;59.27;101152.34;18386859;32;20377;-58
2023/01/06 17:25:37;;;;;;;0.70;0.70;;;;;;;8.72;59.34;101152.56;18369164;32;20520;-58
2023/01/06 17:35:44;;;;;;;1.73;1.62;;;;;;;8.69;59.33;101150.75;18385562;32;20207;-58
2023/01/06 17:45:48;;;;;;;3.97;2.37;;;;;;;8.68;58.92;101148.13;18386768;32;20409;-58
2023/01/06 17:55:52;;;;;;;0.60;0.60;;;;;;;8.58;60.31;101153.19;18393767;31;20108;-58
2023/01/06 18:06:06;;;;;;;0.75;0.75;;;;;;;8.71;60.33;101164.69;18372137;32;20081;-58
2023/01/06 18:16:25;;;;;;;1.17;1.10;;;;;;;8.98;60.37;101166.00;18355783;32;20098;-58
2023/01/06 18:26:46;;;;;;;0.80;0.80;;;;;;;9.14;60.67;101180.16;18371896;32;20082;-58
2023/01/06 18:36:49;;;;;;;0.50;0.50;;;;;;;8.90;60.48;101170.22;18354800;32;20089;-57
2023/01/06 18:46:54;;;;;;;2.05;1.95;;;;;;;9.15;60.29;101181.03;18367385;32;20108;-58
2023/01/06 18:56:57;;;;;;;1.35;1.27;;;;;;;9.18;60.48;101183.69;18404015;31;20128;-58
2023/01/06 19:07:03;;;;;;;13.93;2.45;;;;;;;9.41;60.17;101175.38;18416685;32;20104;-58
2023/01/06 19:17:17;;;;;;;1.85;1.15;;;;;;;9.87;59.07;101163.84;18395565;32;20085;-58
2023/01/06 19:27:44;;;;;;;1.90;1.52;;;;;;;9.65;60.08;101148.78;18356469;32;20421;-58
2023/01/06 19:37:47;;;;;;;3.65;1.23;;;;;;;9.73;59.64;101134.97;18414452;32;20115;-58
2023/01/06 19:47:52;;;;;;;0.70;0.70;;;;;;;9.66;60.14;101136.59;18376729;32;20090;-58
2023/01/06 19:57:57;;;;;;;0.68;0.68;;;;;;;9.81;59.85;101156.78;18385123;32;20096;-58
2023/01/06 20:08:02;;;;;;;1.05;1.05;;;;;;;9.94;59.75;101168.25;18421427;32;20459;-58
2023/01/06 20:18:05;;;;;;;1.12;1.12;;;;;;;9.98;59.84;101154.41;18396232;32;20149;-58
2023/01/06 20:28:10;;;;;;;1.23;1.00;;;;;;;8.77;64.00;101160.44;18379366;32;20104;-58
2023/01/06 20:38:13;;;;;;;0.80;0.80;;;;;;;9.25;62.97;101164.72;18393477;32;20101;-58
2023/01/06 20:48:19;;;;;;;1.77;1.67;;;;;;;9.95;60.90;101176.13;18371025;32;20104;-58
2023/01/06 20:58:22;;;;;;;0.95;0.95;;;;;;;9.94;60.72;101160.44;18384373;32;20159;-58
2023/01/06 21:08:26;;;;;;;0.85;0.85;;;;;;;9.84;61.24;101149.88;18358658;32;20086;-58
2023/01/06 21:18:30;;;;;;;3.00;2.00;;;;;;;9.77;61.32;101158.50;18357936;32;20115;-58
2023/01/06 21:28:34;;;;;;;2.10;1.80;;;;;;;9.92;61.10;101164.75;18380927;32;20474;-58
2023/01/06 21:38:38;;;;;;;1.50;1.27;;;;;;;9.88;61.17;101157.78;18397836;32;20179;-58
2023/01/06 21:48:42;;;;;;;0.85;0.85;;;;;;;9.66;61.92;101147.94;18364940;32;20498;-58
2023/01/06 21:58:46;;;;;;;1.12;1.12;;;;;;;9.61;61.77;101139.16;18378909;32;20093;-58
2023/01/06 22:08:51;;;;;;;1.17;1.05;;;;;;;9.26;63.01;101132.59;18385296;32;20089;-58
2023/01/06 22:18:56;;;;;;;1.55;1.40;;;;;;;9.44;62.51;101142.41;18403754;32;20133;-59
2023/01/06 22:29:00;;;;;;;0.85;0.85;;;;;;;9.44;62.71;101133.72;18384633;32;20498;-59
2023/01/06 22:39:04;;;;;;;0.90;0.90;;;;;;;9.52;62.57;101141.63;18355435;32;20109;-58
2023/01/06 22:49:10;;;;;;;0.77;0.77;;;;;;;9.43;63.32;101145.00;18388871;32;20148;-58
2023/01/06 22:59:15;;;;;;;1.60;1.50;;;;;;;9.56;62.44;101149.50;18360988;32;20227;-59
2023/01/06 23:09:20;;;;;;;1.42;1.17;;;;;;;9.37;62.88;101137.97;18391748;32;20246;-59
2023/01/06 23:19:24;;;;;;;15.57;2.55;;;;;;;9.19;62.61;101135.94;18400287;32;20112;-59
2023/01/06 23:29:28;;;;;;;2.85;2.42;;;;;;;8.95;62.37;101129.50;18407434;32;20097;-58
2023/01/06 23:39:31;;;;;;;0.80;0.80;;;;;;;8.65;62.35;101137.66;18363091;32;20141;-58
2023/01/06 23:49:36;;;;;;;0.82;0.82;;;;;;;8.14;62.99;101134.97;18362409;32;20145;-58
2023/01/06 23:59:39;;;;;;;2.85;2.65;;;;;;;7.80;63.08;101139.47;18362524;32;20089;-58
